createdAt,value
2022-07-29T00:01:53.432Z,27.68
2022-07-29T00:04:21.404Z,26.29
2022-07-29T00:06:48.556Z,27.28
2022-07-29T00:09:15.572Z,27.38
2022-07-29T00:11:42.220Z,27.64
2022-07-29T00:14:09.561Z,27.60
2022-07-29T00:16:37.012Z,27.54
2022-07-29T00:19:04.551Z,27.46
2022-07-29T00:21:31.162Z,27.27
2022-07-29T00:23:57.924Z,27.27
2022-07-29T00:26:24.499Z,27.33
2022-07-29T00:28:51.117Z,27.36
2022-07-29T00:31:17.786Z,27.41
2022-07-29T00:33:44.508Z,27.35
2022-07-29T00:36:11.079Z,27.43
2022-07-29T00:38:37.653Z,27.45
2022-07-29T00:41:04.335Z,27.24
2022-07-29T00:43:30.972Z,27.40
2022-07-29T00:45:57.589Z,27.14
2022-07-29T00:48:24.179Z,27.20
2022-07-29T00:50:51.380Z,27.31
2022-07-29T00:53:20.596Z,27.16
2022-07-29T00:55:47.201Z,27.24
2022-07-29T00:58:15.013Z,27.24
2022-07-29T01:00:42.976Z,27.25
2022-07-29T01:03:12.263Z,26.99
2022-07-29T01:05:48.142Z,26.81
2022-07-29T01:08:18.473Z,26.84
2022-07-29T01:10:46.533Z,26.75
2022-07-29T01:13:13.875Z,26.85
2022-07-29T01:15:49.280Z,26.80
2022-07-29T01:18:25.181Z,26.66
2022-07-29T01:21:26.887Z,26.67
2022-07-29T01:23:59.414Z,26.62
2022-07-29T01:26:32.793Z,26.60
2022-07-29T01:29:08.499Z,26.55
2022-07-29T01:32:03.678Z,26.59
2022-07-29T01:34:46.550Z,26.53
2022-07-29T01:37:30.667Z,26.34
2022-07-29T01:39:59.887Z,26.22
2022-07-29T01:42:37.786Z,26.41
2022-07-29T01:45:12.289Z,26.18
2022-07-29T01:47:46.298Z,26.30
2022-07-29T01:50:17.299Z,26.23
2022-07-29T01:52:50.710Z,26.25
2022-07-29T01:55:20.936Z,25.80
2022-07-29T01:57:49.531Z,26.00
2022-07-29T02:00:17.627Z,26.09
2022-07-29T02:02:46.859Z,25.94
2022-07-29T02:05:16.990Z,25.73
2022-07-29T02:07:45.464Z,26.05
2022-07-29T02:10:13.858Z,26.07
2022-07-29T02:12:43.673Z,26.11
2022-07-29T02:15:17.976Z,25.98
2022-07-29T02:17:59.607Z,26.09
2022-07-29T02:20:28.770Z,26.12
2022-07-29T02:22:57.984Z,26.16
2022-07-29T02:25:25.710Z,26.07
2022-07-29T02:28:06.315Z,26.10
2022-07-29T02:30:34.035Z,26.45
2022-07-29T02:33:02.025Z,26.47
2022-07-29T02:35:34.557Z,26.39
2022-07-29T02:38:22.592Z,26.31
2022-07-29T02:40:51.647Z,26.16
2022-07-29T02:43:18.747Z,26.45
2022-07-29T02:45:48.360Z,26.54
2022-07-29T02:48:23.486Z,26.46
2022-07-29T02:50:55.703Z,26.53
2022-07-29T02:53:26.298Z,26.41
2022-07-29T02:55:57.808Z,26.46
2022-07-29T02:58:39.305Z,26.52
2022-07-29T03:01:19.340Z,26.49
2022-07-29T03:03:51.630Z,26.43
2022-07-29T03:06:28.210Z,26.51
2022-07-29T03:09:09.122Z,26.33
2022-07-29T03:11:42.310Z,26.27
2022-07-29T03:14:18.512Z,26.48
2022-07-29T03:16:46.080Z,26.42
2022-07-29T03:19:12.918Z,26.38
2022-07-29T03:21:40.075Z,26.10
2022-07-29T03:24:10.535Z,26.19
2022-07-29T03:26:37.882Z,26.14
2022-07-29T03:29:04.500Z,26.12
2022-07-29T03:31:32.154Z,26.22
2022-07-29T03:34:00.425Z,26.21
2022-07-29T03:36:27.213Z,26.07
2022-07-29T03:38:54.300Z,26.10
2022-07-29T03:41:23.821Z,26.19
2022-07-29T03:43:52.487Z,26.26
2022-07-29T03:46:21.989Z,26.15
2022-07-29T03:48:51.557Z,26.30
2022-07-29T03:51:18.377Z,26.40
2022-07-29T03:54:00.186Z,26.19
2022-07-29T03:56:29.068Z,26.18
2022-07-29T03:58:56.612Z,26.08
2022-07-29T04:01:23.870Z,25.43
2022-07-29T04:03:50.736Z,25.79
2022-07-29T04:06:17.381Z,25.93
2022-07-29T04:08:43.994Z,25.92
2022-07-29T04:11:10.683Z,25.84
2022-07-29T04:13:37.963Z,25.80
2022-07-29T04:16:04.868Z,25.80
2022-07-29T04:18:31.553Z,25.72
2022-07-29T04:21:01.706Z,25.92
2022-07-29T04:23:33.462Z,25.82
2022-07-29T04:26:02.021Z,25.93
2022-07-29T04:28:28.595Z,25.80
2022-07-29T04:30:55.254Z,25.93
2022-07-29T04:33:28.100Z,25.75
2022-07-29T04:35:55.043Z,25.40
2022-07-29T04:38:23.172Z,25.87
2022-07-29T04:40:49.973Z,25.75
2022-07-29T04:43:16.875Z,25.91
2022-07-29T04:45:49.362Z,25.86
2022-07-29T04:48:16.045Z,25.67
2022-07-29T04:50:43.262Z,25.38
2022-07-29T04:54:02.267Z,25.99
2022-07-29T04:56:28.969Z,25.53
2022-07-29T04:59:17.340Z,24.97
2022-07-29T05:02:08.435Z,25.07
2022-07-29T05:04:34.973Z,25.79
2022-07-29T05:07:01.508Z,25.61
2022-07-29T05:09:28.066Z,25.83
2022-07-29T05:11:54.738Z,25.75
2022-07-29T05:14:21.319Z,25.80
2022-07-29T05:16:48.058Z,25.75
2022-07-29T05:19:14.936Z,25.96
2022-07-29T05:21:41.677Z,26.01
2022-07-29T05:24:09.204Z,26.13
2022-07-29T05:26:35.796Z,26.11
2022-07-29T05:29:02.466Z,25.99
2022-07-29T05:31:29.069Z,26.27
2022-07-29T05:33:55.704Z,25.78
2022-07-29T05:36:23.357Z,25.85
2022-07-29T05:38:50.061Z,26.16
2022-07-29T05:41:16.599Z,25.88
2022-07-29T05:43:43.236Z,25.85
2022-07-29T05:46:09.850Z,25.82
2022-07-29T05:48:36.870Z,26.16
2022-07-29T05:51:03.789Z,26.29
2022-07-29T05:53:30.381Z,26.28
2022-07-29T05:55:57.071Z,26.30
2022-07-29T05:58:24.197Z,26.01
2022-07-29T06:00:50.823Z,26.16
2022-07-29T06:03:17.417Z,26.37
2022-07-29T06:05:44.072Z,26.22
2022-07-29T06:08:10.720Z,26.25
2022-07-29T06:10:37.510Z,26.36
2022-07-29T06:13:04.286Z,26.29
2022-07-29T06:15:31.298Z,26.43
2022-07-29T06:18:00.578Z,26.51
2022-07-29T06:20:32.021Z,26.15
2022-07-29T06:22:59.730Z,26.50
2022-07-29T06:25:27.152Z,26.10
2022-07-29T06:27:53.824Z,26.44
2022-07-29T06:30:20.601Z,26.28
2022-07-29T06:32:47.805Z,26.33
2022-07-29T06:38:01.345Z,26.42
2022-07-29T06:40:46.493Z,26.57
2022-07-29T06:43:13.139Z,26.69
2022-07-29T06:45:42.474Z,26.79
2022-07-29T06:48:10.565Z,26.83
2022-07-29T06:50:37.452Z,26.70
2022-07-29T06:53:04.624Z,27.02
2022-07-29T06:55:31.383Z,27.01
2022-07-29T06:57:58.050Z,27.01
2022-07-29T07:00:24.945Z,27.06
2022-07-29T07:02:51.772Z,26.66
2022-07-29T07:05:18.442Z,26.67
2022-07-29T07:07:45.240Z,27.25
2022-07-29T07:10:11.909Z,26.81
2022-07-29T07:12:38.576Z,27.28
2022-07-29T07:15:05.941Z,27.36
2022-07-29T07:17:32.671Z,27.39
2022-07-29T07:19:59.301Z,27.20
2022-07-29T07:22:25.918Z,27.15
2022-07-29T07:24:52.577Z,27.44
2022-07-29T07:27:19.309Z,27.47
2022-07-29T07:29:45.920Z,27.62
2022-07-29T07:32:14.180Z,27.69
2022-07-29T07:34:40.857Z,27.84
2022-07-29T07:37:07.474Z,27.89
2022-07-29T07:39:34.080Z,27.65
2022-07-29T07:42:00.673Z,27.86
2022-07-29T07:44:27.347Z,27.81
2022-07-29T07:46:54.656Z,27.86
2022-07-29T07:49:22.171Z,27.88
2022-07-29T07:51:50.571Z,27.72
2022-07-29T07:54:18.714Z,27.95
2022-07-29T07:56:50.844Z,27.89
2022-07-29T07:59:20.485Z,28.01
2022-07-29T08:01:47.831Z,27.94
2022-07-29T08:04:27.559Z,28.12
2022-07-29T08:06:56.699Z,28.02
2022-07-29T08:09:30.993Z,27.94
2022-07-29T08:11:59.514Z,27.16
2022-07-29T08:14:26.419Z,27.93
2022-07-29T08:16:53.085Z,28.24
2022-07-29T08:19:20.018Z,28.25
2022-07-29T08:21:46.636Z,28.28
2022-07-29T08:24:31.853Z,28.50
2022-07-29T08:26:58.617Z,28.41
2022-07-29T08:29:25.376Z,28.52
2022-07-29T08:31:52.206Z,28.66
2022-07-29T08:34:19.041Z,28.45
2022-07-29T08:36:52.975Z,28.88
2022-07-29T08:39:19.596Z,28.92
2022-07-29T08:41:57.399Z,28.82
2022-07-29T08:44:30.872Z,29.24
2022-07-29T08:46:58.092Z,29.26
2022-07-29T08:49:24.839Z,29.27
2022-07-29T08:51:52.214Z,29.24
2022-07-29T08:54:19.657Z,29.32
2022-07-29T08:56:50.978Z,29.47
2022-07-29T08:59:20.989Z,29.41
2022-07-29T09:01:49.426Z,29.75
2022-07-29T09:04:17.239Z,29.73
2022-07-29T09:06:47.175Z,29.58
2022-07-29T09:09:14.786Z,29.68
2022-07-29T09:12:00.110Z,29.92
2022-07-29T09:14:26.818Z,30.21
2022-07-29T09:16:57.613Z,30.08
2022-07-29T09:19:32.315Z,30.04
2022-07-29T09:22:03.833Z,30.21
2022-07-29T09:24:44.323Z,30.50
2022-07-29T09:27:24.683Z,30.51
2022-07-29T09:30:01.269Z,30.37
2022-07-29T09:32:29.400Z,30.29
2022-07-29T09:35:16.248Z,30.33
2022-07-29T09:37:44.109Z,30.37
2022-07-29T09:40:26.029Z,30.22
2022-07-29T09:42:55.113Z,30.42
2022-07-29T09:45:33.000Z,30.45
2022-07-29T09:48:03.814Z,30.76
2022-07-29T09:50:41.172Z,30.84
2022-07-29T09:53:10.381Z,30.77
2022-07-29T09:55:53.161Z,31.08
2022-07-29T09:58:22.202Z,31.10
2022-07-29T10:00:50.750Z,31.02
2022-07-29T10:03:18.398Z,31.44
2022-07-29T10:05:46.491Z,31.56
2022-07-29T10:08:13.801Z,30.92
2022-07-29T10:10:43.988Z,31.11
2022-07-29T10:13:15.760Z,30.37
2022-07-29T10:15:46.396Z,31.35
2022-07-29T10:18:14.888Z,31.59
2022-07-29T10:20:42.269Z,31.66
2022-07-29T10:23:10.232Z,31.80
2022-07-29T10:25:36.968Z,31.51
2022-07-29T10:28:03.810Z,31.59
2022-07-29T10:30:30.572Z,31.83
2022-07-29T10:33:19.710Z,31.97
2022-07-29T10:35:58.451Z,32.13
2022-07-29T10:38:45.622Z,32.38
2022-07-29T10:41:49.907Z,31.76
2022-07-29T10:44:23.224Z,31.80
2022-07-29T10:46:52.124Z,31.86
2022-07-29T10:52:13.276Z,32.33
2022-07-29T10:54:48.814Z,32.47
2022-07-29T10:57:54.699Z,32.52
2022-07-29T11:00:17.023Z,32.94
2022-07-29T11:02:45.973Z,32.47
2022-07-29T11:05:20.607Z,32.29
2022-07-29T11:08:20.021Z,32.49
2022-07-29T11:11:22.265Z,32.60
2022-07-29T11:13:54.199Z,32.70
2022-07-29T11:16:26.570Z,33.09
2022-07-29T11:19:13.419Z,33.31
2022-07-29T11:21:53.696Z,32.61
2022-07-29T11:24:29.367Z,33.13
2022-07-29T11:27:10.389Z,33.06
2022-07-29T11:29:41.442Z,32.77
2022-07-29T11:32:22.509Z,32.77
2022-07-29T11:35:17.093Z,32.64
2022-07-29T11:37:55.324Z,32.57
2022-07-29T11:40:24.897Z,32.50
2022-07-29T11:42:52.561Z,31.61
2022-07-29T11:45:44.412Z,32.14
2022-07-29T11:48:31.788Z,32.43
2022-07-29T11:51:00.706Z,32.61
2022-07-29T11:53:29.148Z,33.06
2022-07-29T11:56:00.190Z,32.80
2022-07-29T11:58:27.241Z,33.16
2022-07-29T12:00:55.563Z,33.06
2022-07-29T12:06:15.461Z,33.34
2022-07-29T12:08:45.536Z,33.52
2022-07-29T12:11:17.936Z,33.70
2022-07-29T12:13:47.674Z,33.62
2022-07-29T12:16:16.013Z,33.13
2022-07-29T12:19:02.876Z,33.25
2022-07-29T12:21:53.881Z,33.32
2022-07-29T12:24:26.944Z,33.40
2022-07-29T12:26:59.003Z,33.22
2022-07-29T12:29:35.059Z,32.93
2022-07-29T12:32:04.884Z,33.03
2022-07-29T12:34:32.315Z,33.04
2022-07-29T12:36:59.075Z,33.28
2022-07-29T12:39:28.946Z,33.35
2022-07-29T12:42:04.076Z,32.92
2022-07-29T12:44:52.478Z,33.06
2022-07-29T12:47:20.415Z,32.64
2022-07-29T12:49:47.848Z,32.05
2022-07-29T12:52:37.429Z,32.30
2022-07-29T12:55:05.123Z,32.08
2022-07-29T12:57:32.966Z,32.33
2022-07-29T13:00:06.130Z,32.44
2022-07-29T13:02:32.821Z,32.34
2022-07-29T13:05:01.289Z,31.86
2022-07-29T13:07:54.418Z,32.00
2022-07-29T13:10:24.585Z,32.09
2022-07-29T13:13:09.087Z,32.04
2022-07-29T13:15:36.603Z,31.64
2022-07-29T13:18:03.803Z,31.62
2022-07-29T13:20:30.961Z,32.00
2022-07-29T13:22:59.429Z,31.77
2022-07-29T13:25:33.122Z,31.28
2022-07-29T13:28:01.017Z,31.86
2022-07-29T13:30:28.169Z,31.67
2022-07-29T13:32:56.119Z,31.90
2022-07-29T13:35:23.041Z,31.68
2022-07-29T13:37:49.659Z,31.78
2022-07-29T13:40:18.786Z,31.37
2022-07-29T13:42:45.465Z,31.50
2022-07-29T13:45:14.253Z,31.75
2022-07-29T13:47:46.009Z,31.52
2022-07-29T13:50:19.595Z,31.73
2022-07-29T13:52:46.234Z,31.52
2022-07-29T13:55:12.866Z,31.87
2022-07-29T13:57:39.508Z,31.69
2022-07-29T14:00:07.569Z,31.41
2022-07-29T14:02:34.652Z,31.64
2022-07-29T14:05:06.162Z,31.78
2022-07-29T14:07:34.739Z,31.66
2022-07-29T14:10:01.408Z,32.09
2022-07-29T14:12:28.260Z,31.81
2022-07-29T14:14:54.992Z,31.78
2022-07-29T14:17:21.747Z,32.19
2022-07-29T14:19:48.446Z,31.89
2022-07-29T14:22:15.590Z,31.77
2022-07-29T14:24:43.072Z,32.05
2022-07-29T14:27:09.718Z,32.12
2022-07-29T14:29:38.312Z,31.55
2022-07-29T14:32:10.106Z,32.03
2022-07-29T14:34:37.724Z,31.93
2022-07-29T14:37:06.773Z,32.08
2022-07-29T14:39:42.161Z,31.76
2022-07-29T14:42:11.555Z,32.08
2022-07-29T14:44:39.733Z,31.72
2022-07-29T14:47:07.628Z,31.43
2022-07-29T14:49:36.163Z,31.93
2022-07-29T14:52:03.522Z,32.34
2022-07-29T14:54:30.383Z,32.28
2022-07-29T14:57:00.086Z,32.48
2022-07-29T14:59:27.392Z,32.36
2022-07-29T15:01:54.248Z,32.07
2022-07-29T15:04:21.095Z,33.25
2022-07-29T15:06:47.891Z,33.28
2022-07-29T15:09:14.745Z,32.23
2022-07-29T15:11:41.308Z,33.07
2022-07-29T15:14:08.084Z,33.08
2022-07-29T15:16:38.056Z,32.72
2022-07-29T15:19:05.809Z,33.33
2022-07-29T15:21:32.848Z,32.92
2022-07-29T15:23:59.795Z,33.45
2022-07-29T15:26:27.048Z,33.46
2022-07-29T15:28:54.030Z,32.38
2022-07-29T15:31:20.688Z,33.22
2022-07-29T15:33:48.686Z,33.18
2022-07-29T15:36:35.741Z,33.02
2022-07-29T15:39:02.267Z,32.81
2022-07-29T15:41:29.038Z,33.02
2022-07-29T15:43:55.825Z,32.79
2022-07-29T15:46:41.086Z,33.03
2022-07-29T15:49:08.252Z,32.45
2022-07-29T15:51:35.178Z,32.82
2022-07-29T15:54:03.892Z,32.60
2022-07-29T15:56:33.429Z,33.04
2022-07-29T15:59:00.317Z,32.83
2022-07-29T16:01:28.170Z,32.99
2022-07-29T16:03:55.397Z,32.96
2022-07-29T16:06:22.914Z,33.05
2022-07-29T16:08:49.879Z,32.88
2022-07-29T16:11:16.628Z,33.10
2022-07-29T16:13:43.426Z,33.13
2022-07-29T16:16:10.401Z,32.24
2022-07-29T16:18:37.247Z,32.96
2022-07-29T16:21:04.011Z,32.77
2022-07-29T16:23:30.748Z,32.93
2022-07-29T16:26:00.024Z,32.94
2022-07-29T16:28:30.441Z,32.31
2022-07-29T16:30:58.038Z,31.44
2022-07-29T16:33:24.849Z,32.39
2022-07-29T16:35:51.974Z,31.67
2022-07-29T16:38:19.134Z,31.72
2022-07-29T16:40:45.847Z,31.81
2022-07-29T16:43:12.692Z,31.81
2022-07-29T16:45:45.541Z,31.25
2022-07-29T16:48:14.696Z,31.54
2022-07-29T16:50:43.319Z,31.49
2022-07-29T16:53:10.561Z,31.38
2022-07-29T16:55:37.301Z,30.89
2022-07-29T16:58:04.167Z,31.23
2022-07-29T17:03:05.892Z,31.14
2022-07-29T17:05:50.479Z,31.16
2022-07-29T17:08:20.229Z,31.06
2022-07-29T17:10:47.352Z,31.02
2022-07-29T17:13:14.441Z,30.56
2022-07-29T17:15:43.098Z,31.10
2022-07-29T17:18:12.599Z,30.72
2022-07-29T17:20:41.593Z,30.72
2022-07-29T17:23:08.443Z,30.80
2022-07-29T17:25:35.260Z,30.98
2022-07-29T17:28:01.966Z,31.16
2022-07-29T17:30:29.809Z,31.02
2022-07-29T17:32:56.590Z,31.12
2022-07-29T17:35:41.736Z,31.07
2022-07-29T17:38:08.429Z,30.96
2022-07-29T17:40:35.193Z,31.07
2022-07-29T17:43:01.898Z,31.39
2022-07-29T17:45:48.704Z,31.06
2022-07-29T17:48:15.477Z,30.90
2022-07-29T17:50:42.368Z,31.13
2022-07-29T17:53:10.777Z,30.63
2022-07-29T17:55:45.394Z,30.90
2022-07-29T17:58:12.674Z,30.25
2022-07-29T18:00:39.432Z,30.88
2022-07-29T18:03:06.536Z,30.64
2022-07-29T18:05:33.819Z,30.73
2022-07-29T18:08:01.045Z,30.66
2022-07-29T18:10:27.765Z,30.76
2022-07-29T18:12:54.752Z,30.74
2022-07-29T18:15:21.502Z,30.62
2022-07-29T18:17:53.989Z,30.63
2022-07-29T18:20:25.941Z,30.31
2022-07-29T18:22:53.121Z,30.54
2022-07-29T18:25:20.003Z,30.41
2022-07-29T18:27:46.664Z,30.14
2022-07-29T18:30:15.257Z,30.34
2022-07-29T18:32:54.369Z,30.33
2022-07-29T18:35:29.289Z,30.14
2022-07-29T18:38:01.579Z,29.93
2022-07-29T18:40:29.954Z,30.32
2022-07-29T18:42:57.288Z,30.13
2022-07-29T18:45:28.364Z,29.98
2022-07-29T18:47:57.089Z,30.26
2022-07-29T18:50:29.614Z,30.28
2022-07-29T18:53:01.262Z,30.19
2022-07-29T18:55:27.993Z,30.28
2022-07-29T18:57:57.123Z,30.22
2022-07-29T19:00:26.180Z,30.06
2022-07-29T19:02:53.243Z,30.27
2022-07-29T19:05:20.722Z,30.22
2022-07-29T19:07:47.408Z,29.54
2022-07-29T19:10:14.053Z,29.92
2022-07-29T19:12:41.341Z,30.20
2022-07-29T19:15:10.702Z,30.25
2022-07-29T19:17:38.771Z,30.24
2022-07-29T19:20:07.306Z,30.24
2022-07-29T19:22:34.601Z,29.79
2022-07-29T19:25:01.791Z,30.13
2022-07-29T19:27:28.850Z,30.12
2022-07-29T19:29:59.385Z,30.14
2022-07-29T19:32:26.780Z,29.98
2022-07-29T19:35:12.328Z,30.03
2022-07-29T19:37:39.164Z,29.99
2022-07-29T19:40:06.863Z,29.56
2022-07-29T19:42:34.096Z,29.15
2022-07-29T19:45:00.847Z,29.11
2022-07-29T19:47:27.543Z,28.81
2022-07-29T19:49:55.363Z,29.13
2022-07-29T19:52:22.185Z,28.67
2022-07-29T19:54:48.840Z,29.00
2022-07-29T19:57:15.582Z,28.77
2022-07-29T19:59:44.504Z,28.59
2022-07-29T20:02:12.583Z,28.53
2022-07-29T20:04:39.899Z,28.59
2022-07-29T20:07:07.419Z,28.55
2022-07-29T20:09:36.819Z,27.89
2022-07-29T20:12:04.822Z,27.58
2022-07-29T20:14:31.657Z,28.25
2022-07-29T20:16:58.616Z,27.30
2022-07-29T20:19:28.112Z,27.52
2022-07-29T20:21:54.860Z,27.39
2022-07-29T20:24:21.897Z,27.76
2022-07-29T20:26:49.582Z,28.16
2022-07-29T20:29:16.686Z,27.08
2022-07-29T20:31:43.446Z,28.10
2022-07-29T20:34:14.361Z,28.02
2022-07-29T20:36:41.538Z,27.97
2022-07-29T20:39:10.225Z,28.01
2022-07-29T20:41:36.957Z,28.00
2022-07-29T20:44:04.448Z,27.45
2022-07-29T20:46:31.436Z,26.48
2022-07-29T20:48:58.257Z,27.82
2022-07-29T20:51:25.646Z,27.54
2022-07-29T20:53:52.625Z,27.80
2022-07-29T20:56:19.661Z,27.71
2022-07-29T20:58:46.583Z,27.19
2022-07-29T21:01:13.438Z,27.49
2022-07-29T21:03:41.069Z,27.56
2022-07-29T21:06:09.131Z,27.57
2022-07-29T21:08:35.866Z,26.43
2022-07-29T21:11:02.603Z,26.81
2022-07-29T21:13:29.605Z,27.18
2022-07-29T21:16:02.705Z,26.48
2022-07-29T21:18:33.008Z,27.01
2022-07-29T21:21:01.183Z,27.13
2022-07-29T21:23:28.351Z,27.16
2022-07-29T21:25:57.781Z,26.67
2022-07-29T21:28:29.528Z,27.32
2022-07-29T21:30:59.104Z,26.90
2022-07-29T21:33:29.329Z,26.95
2022-07-29T21:36:26.698Z,27.11
2022-07-29T21:38:43.999Z,26.96
2022-07-29T21:41:12.674Z,27.04
2022-07-29T21:43:41.731Z,26.54
2022-07-29T21:46:09.401Z,26.23
2022-07-29T21:48:37.102Z,26.71
2022-07-29T21:51:06.299Z,26.94
2022-07-29T21:53:32.997Z,26.23
2022-07-29T21:56:03.118Z,26.97
2022-07-29T21:58:33.295Z,26.93
2022-07-29T22:01:00.360Z,26.89
2022-07-29T22:03:27.053Z,26.87
2022-07-29T22:05:54.272Z,27.02
2022-07-29T22:08:23.167Z,26.80
2022-07-29T22:10:52.735Z,26.93
2022-07-29T22:13:19.391Z,26.82
2022-07-29T22:15:48.582Z,26.69
2022-07-29T22:18:20.629Z,26.69
2022-07-29T22:20:48.933Z,26.74
2022-07-29T22:23:15.742Z,26.97
2022-07-29T22:25:42.455Z,26.91
2022-07-29T22:28:09.196Z,26.87
2022-07-29T22:30:37.465Z,25.98
2022-07-29T22:33:04.301Z,26.42
2022-07-29T22:35:31.106Z,26.52
2022-07-29T22:37:58.087Z,25.71
2022-07-29T22:40:30.485Z,25.52
2022-07-29T22:42:57.990Z,26.47
2022-07-29T22:45:25.976Z,26.48
2022-07-29T22:47:59.107Z,26.49
2022-07-29T22:50:26.565Z,26.57
2022-07-29T22:52:53.653Z,26.26
2022-07-29T22:55:21.335Z,26.48
2022-07-29T22:57:48.051Z,26.49
2022-07-29T23:00:15.141Z,26.39
2022-07-29T23:02:41.946Z,26.32
2022-07-29T23:05:12.357Z,26.41
2022-07-29T23:07:39.015Z,25.65
2022-07-29T23:10:06.515Z,26.04
2022-07-29T23:12:33.142Z,25.94
2022-07-29T23:14:59.978Z,26.27
2022-07-29T23:17:26.649Z,26.09
2022-07-29T23:19:53.440Z,25.88
2022-07-29T23:22:22.837Z,25.74
2022-07-29T23:24:49.597Z,26.10
2022-07-29T23:27:16.266Z,25.98
2022-07-29T23:29:43.193Z,25.41
2022-07-29T23:32:09.859Z,26.05
2022-07-29T23:34:36.674Z,25.98
2022-07-29T23:37:03.693Z,25.95
2022-07-29T23:39:30.560Z,25.37
2022-07-29T23:41:57.239Z,26.06
2022-07-29T23:44:24.166Z,26.08
2022-07-29T23:46:51.052Z,25.05
2022-07-29T23:49:17.870Z,25.59
2022-07-29T23:51:44.780Z,25.55
2022-07-29T23:54:11.501Z,25.87
2022-07-29T23:56:38.310Z,26.04
2022-07-29T23:59:05.903Z,25.99
